Delray Beach, FL

12:45 PM EST on November 24, 2014 (GMT -0500)
Palm Beach International | Change Station
CLOSE
Current Station
Airport
Location: West Palm Beach,
Elevation: 20 ft
Nearby Weather Stations

Elev 20 ft 26.68 °N, 80.10 °W | Updated 52 minutes ago

Partly Cloudy
Partly Cloudy
87 °F
Feels Like 99 °F
N
13
Wind Variable Wind from SSE
Gusts 23 mph

Today
High -- | Low -- °F
--% Chance of Precip.
Yesterday
High -- | Low -- °F
Precip. -- in
6:46 AM 5:27 PM
Waxing Crescent, 6% visible
Pressure 29.98 in
Visibility 10.0 miles
Clouds Scattered Clouds 2000 ft
Scattered Clouds 2700 ft
Mostly Cloudy 3900 ft
Heat Index 99 °F
Dew Point 77 °F
Humidity 72%
Rainfall 0.01 in
Snow Depth Not available.
UV 4 out of 12
Pollen 4.00 out of 12
Air Quality Not available.
Flu Activity Not available.
METAR KPBI 241653Z 15011G20KT 10SM SCT020 SCT027TCU BKN039 31/25 A2998 RMK AO2 SLP152 TCU SW-W T03060250

More Conditions Fewer Conditions

Pressure 29.98 in
Visibility 10.0 miles
Clouds Scattered Clouds 2000 ft
Scattered Clouds 2700 ft
Mostly Cloudy 3900 ft
Heat Index 99 °F
Dew Point 77 °F
Humidity 72%
Rainfall 0.01 in
Snow Depth Not available.
UV 4 out of 12
Pollen 4.00 out of 12
Air Quality Not available.
Flu Activity Not available.
METAR KPBI 241653Z 15011G20KT 10SM SCT020 SCT027TCU BKN039 31/25 A2998 RMK AO2 SLP152 TCU SW-W T03060250

More Conditions Fewer Conditions

10-Day Weather Forecast

Almanac

Astronomy

Nov. 24, 2014 Rise Set
Actual Time
Civil Twilight
Nautical Twilight
Astronomical Twilight
Moon
Length of Visible Light
Length of Day
Tomorrow will be .
, % of the Moon is Illuminated

Today's Extremes

State Highs State Lows

Community

WunderPhotos

Upload Photos

1,773,379 photos uploaded!

WunderBlogs® & News

Nearby

Air Quality

  Air Quality AQ Index Pollutant
Not available.

Snow Depth

Station Depth Elevation

Earthquake Activity

City Distance Mag. Time & Date
Minimum magnitude displayed is 2.5.

Coastal Water Temperatures

Place Temperature

Nearby Weather Stations